sensor_id;sensor_type;location;lat;lon;timestamp;temperature;humidity
20977;DHT22;10647;51.016;3.720;2023-02-15T00:00:09;6.40;99.90
20977;DHT22;10647;51.016;3.720;2023-02-15T00:02:38;6.30;99.90
20977;DHT22;10647;51.016;3.720;2023-02-15T00:05:05;6.40;99.90
20977;DHT22;10647;51.016;3.720;2023-02-15T00:07:33;6.30;99.90
20977;DHT22;10647;51.016;3.720;2023-02-15T00:10:01;6.30;99.90
20977;DHT22;10647;51.016;3.720;2023-02-15T00:12:28;6.20;99.90
20977;DHT22;10647;51.016;3.720;2023-02-15T00:14:56;6.20;99.90
20977;DHT22;10647;51.016;3.720;2023-02-15T00:17:23;6.20;99.90
20977;DHT22;10647;51.016;3.720;2023-02-15T00:19:53;6.20;99.90
20977;DHT22;10647;51.016;3.720;2023-02-15T00:22:20;6.20;99.90
20977;DHT22;10647;51.016;3.720;2023-02-15T00:24:48;6.10;99.90
20977;DHT22;10647;51.016;3.720;2023-02-15T00:27:16;6.10;99.90
20977;DHT22;10647;51.016;3.720;2023-02-15T00:29:44;6.10;99.90
20977;DHT22;10647;51.016;3.720;2023-02-15T00:32:11;6.00;99.90
20977;DHT22;10647;51.016;3.720;2023-02-15T00:34:39;6.00;99.90
20977;DHT22;10647;51.016;3.720;2023-02-15T00:37:07;5.90;99.90
20977;DHT22;10647;51.016;3.720;2023-02-15T00:39:34;5.90;99.90
20977;DHT22;10647;51.016;3.720;2023-02-15T00:42:02;5.90;99.90
20977;DHT22;10647;51.016;3.720;2023-02-15T00:44:30;5.90;99.90
20977;DHT22;10647;51.016;3.720;2023-02-15T00:46:57;5.80;99.90
20977;DHT22;10647;51.016;3.720;2023-02-15T00:49:25;5.80;99.90
20977;DHT22;10647;51.016;3.720;2023-02-15T00:51:52;5.80;99.90
20977;DHT22;10647;51.016;3.720;2023-02-15T00:54:20;5.80;99.90
20977;DHT22;10647;51.016;3.720;2023-02-15T00:56:47;5.80;99.90
20977;DHT22;10647;51.016;3.720;2023-02-15T00:59:15;5.70;99.90
20977;DHT22;10647;51.016;3.720;2023-02-15T01:01:42;5.70;99.90
20977;DHT22;10647;51.016;3.720;2023-02-15T01:04:10;5.70;99.90
20977;DHT22;10647;51.016;3.720;2023-02-15T01:06:37;5.70;99.90
20977;DHT22;10647;51.016;3.720;2023-02-15T01:09:05;5.60;99.90
20977;DHT22;10647;51.016;3.720;2023-02-15T01:11:32;5.60;99.90
20977;DHT22;10647;51.016;3.720;2023-02-15T01:14:00;5.60;99.90
20977;DHT22;10647;51.016;3.720;2023-02-15T01:16:29;5.60;99.90
20977;DHT22;10647;51.016;3.720;2023-02-15T01:18:57;5.50;99.90
20977;DHT22;10647;51.016;3.720;2023-02-15T01:21:25;5.50;99.90
20977;DHT22;10647;51.016;3.720;2023-02-15T01:23:53;5.50;99.90
20977;DHT22;10647;51.016;3.720;2023-02-15T01:26:21;5.50;99.90
20977;DHT22;10647;51.016;3.720;2023-02-15T01:28:48;5.50;99.90
20977;DHT22;10647;51.016;3.720;2023-02-15T01:31:17;5.40;99.90
20977;DHT22;10647;51.016;3.720;2023-02-15T01:33:46;5.40;99.90
20977;DHT22;10647;51.016;3.720;2023-02-15T01:36:14;5.40;99.90
20977;DHT22;10647;51.016;3.720;2023-02-15T01:38:43;5.30;99.90
20977;DHT22;10647;51.016;3.720;2023-02-15T01:41:11;5.30;99.90
20977;DHT22;10647;51.016;3.720;2023-02-15T01:49:31;5.20;99.90
20977;DHT22;10647;51.016;3.720;2023-02-15T01:52:00;5.20;99.90
20977;DHT22;10647;51.016;3.720;2023-02-15T01:54:30;5.10;99.90
20977;DHT22;10647;51.016;3.720;2023-02-15T01:57:03;5.10;99.90
20977;DHT22;10647;51.016;3.720;2023-02-15T01:59:33;5.10;99.90
20977;DHT22;10647;51.016;3.720;2023-02-15T02:02:04;5.10;99.90
20977;DHT22;10647;51.016;3.720;2023-02-15T02:04:51;5.10;99.90
20977;DHT22;10647;51.016;3.720;2023-02-15T02:07:21;5.00;99.90
20977;DHT22;10647;51.016;3.720;2023-02-15T02:09:49;5.00;99.90
20977;DHT22;10647;51.016;3.720;2023-02-15T02:12:23;5.00;99.90
20977;DHT22;10647;51.016;3.720;2023-02-15T02:14:52;5.00;99.90
20977;DHT22;10647;51.016;3.720;2023-02-15T02:34:50;4.70;99.90
20977;DHT22;10647;51.016;3.720;2023-02-15T02:37:48;4.70;99.90
20977;DHT22;10647;51.016;3.720;2023-02-15T02:42:58;4.60;99.90
20977;DHT22;10647;51.016;3.720;2023-02-15T02:48:24;4.50;99.90
20977;DHT22;10647;51.016;3.720;2023-02-15T02:50:52;4.60;99.90
20977;DHT22;10647;51.016;3.720;2023-02-15T02:53:19;4.50;99.90
20977;DHT22;10647;51.016;3.720;2023-02-15T02:56:03;4.60;99.90
20977;DHT22;10647;51.016;3.720;2023-02-15T02:58:59;4.50;99.90
20977;DHT22;10647;51.016;3.720;2023-02-15T03:04:25;4.50;99.90
20977;DHT22;10647;51.016;3.720;2023-02-15T03:07:01;4.50;99.90
20977;DHT22;10647;51.016;3.720;2023-02-15T03:12:23;4.40;99.90
20977;DHT22;10647;51.016;3.720;2023-02-15T03:14:58;4.40;99.90
20977;DHT22;10647;51.016;3.720;2023-02-15T03:17:25;4.40;99.90
20977;DHT22;10647;51.016;3.720;2023-02-15T03:19:56;4.40;99.90
20977;DHT22;10647;51.016;3.720;2023-02-15T03:25:25;4.40;99.90
20977;DHT22;10647;51.016;3.720;2023-02-15T03:27:59;4.40;99.90
20977;DHT22;10647;51.016;3.720;2023-02-15T03:30:27;4.40;99.90
20977;DHT22;10647;51.016;3.720;2023-02-15T03:32:57;4.40;99.90
20977;DHT22;10647;51.016;3.720;2023-02-15T03:35:49;4.30;99.90
20977;DHT22;10647;51.016;3.720;2023-02-15T03:38:20;4.30;99.90
20977;DHT22;10647;51.016;3.720;2023-02-15T03:40:48;4.30;99.90
20977;DHT22;10647;51.016;3.720;2023-02-15T03:51:44;4.20;99.90
20977;DHT22;10647;51.016;3.720;2023-02-15T03:54:30;4.10;99.90
20977;DHT22;10647;51.016;3.720;2023-02-15T03:57:19;4.10;99.90
20977;DHT22;10647;51.016;3.720;2023-02-15T04:03:24;4.10;99.90
20977;DHT22;10647;51.016;3.720;2023-02-15T04:06:10;4.10;99.90
20977;DHT22;10647;51.016;3.720;2023-02-15T04:08:38;4.00;99.90
20977;DHT22;10647;51.016;3.720;2023-02-15T04:11:23;4.10;99.90
20977;DHT22;10647;51.016;3.720;2023-02-15T04:13:51;4.10;99.90
20977;DHT22;10647;51.016;3.720;2023-02-15T04:16:20;4.00;99.90
20977;DHT22;10647;51.016;3.720;2023-02-15T04:18:48;4.10;99.90
20977;DHT22;10647;51.016;3.720;2023-02-15T04:21:34;4.10;99.90
20977;DHT22;10647;51.016;3.720;2023-02-15T04:24:19;4.10;99.90
20977;DHT22;10647;51.016;3.720;2023-02-15T04:27:05;4.10;99.90
20977;DHT22;10647;51.016;3.720;2023-02-15T04:29:33;4.00;99.90
20977;DHT22;10647;51.016;3.720;2023-02-15T04:32:02;4.10;99.90
20977;DHT22;10647;51.016;3.720;2023-02-15T04:34:30;4.10;99.90
20977;DHT22;10647;51.016;3.720;2023-02-15T04:36:58;4.10;99.90
20977;DHT22;10647;51.016;3.720;2023-02-15T04:39:26;4.10;99.90
20977;DHT22;10647;51.016;3.720;2023-02-15T04:41:56;4.10;99.90
20977;DHT22;10647;51.016;3.720;2023-02-15T04:44:24;4.10;99.90
20977;DHT22;10647;51.016;3.720;2023-02-15T04:46:53;4.10;99.90
20977;DHT22;10647;51.016;3.720;2023-02-15T04:49:21;4.10;99.90
20977;DHT22;10647;51.016;3.720;2023-02-15T04:51:48;4.10;99.90
20977;DHT22;10647;51.016;3.720;2023-02-15T04:54:16;4.10;99.90
20977;DHT22;10647;51.016;3.720;2023-02-15T04:56:49;4.10;99.90
20977;DHT22;10647;51.016;3.720;2023-02-15T04:59:17;4.10;99.90
20977;DHT22;10647;51.016;3.720;2023-02-15T05:01:44;4.10;99.90
20977;DHT22;10647;51.016;3.720;2023-02-15T05:04:12;4.10;99.90
20977;DHT22;10647;51.016;3.720;2023-02-15T05:06:42;4.00;99.90
20977;DHT22;10647;51.016;3.720;2023-02-15T05:09:11;4.10;99.90
20977;DHT22;10647;51.016;3.720;2023-02-15T05:11:39;4.10;99.90
20977;DHT22;10647;51.016;3.720;2023-02-15T05:14:07;4.10;99.90
20977;DHT22;10647;51.016;3.720;2023-02-15T05:16:54;4.10;99.90
20977;DHT22;10647;51.016;3.720;2023-02-15T05:19:21;4.10;99.90
20977;DHT22;10647;51.016;3.720;2023-02-15T05:21:56;4.10;99.90
20977;DHT22;10647;51.016;3.720;2023-02-15T05:24:29;4.10;99.90
20977;DHT22;10647;51.016;3.720;2023-02-15T05:27:15;4.10;99.90
20977;DHT22;10647;51.016;3.720;2023-02-15T05:30:01;4.00;99.90
20977;DHT22;10647;51.016;3.720;2023-02-15T05:32:29;4.10;99.90
20977;DHT22;10647;51.016;3.720;2023-02-15T05:35:16;4.00;99.90
20977;DHT22;10647;51.016;3.720;2023-02-15T05:37:46;4.00;99.90
20977;DHT22;10647;51.016;3.720;2023-02-15T05:40:14;4.00;99.90
20977;DHT22;10647;51.016;3.720;2023-02-15T05:42:42;4.00;99.90
20977;DHT22;10647;51.016;3.720;2023-02-15T05:45:11;4.00;99.90
20977;DHT22;10647;51.016;3.720;2023-02-15T05:47:45;4.00;99.90
20977;DHT22;10647;51.016;3.720;2023-02-15T05:50:12;4.00;99.90
20977;DHT22;10647;51.016;3.720;2023-02-15T05:52:45;4.00;99.90
20977;DHT22;10647;51.016;3.720;2023-02-15T05:55:32;4.00;99.90
20977;DHT22;10647;51.016;3.720;2023-02-15T05:58:00;4.00;99.90
20977;DHT22;10647;51.016;3.720;2023-02-15T06:03:23;4.10;99.90
20977;DHT22;10647;51.016;3.720;2023-02-15T06:05:52;4.00;99.90
20977;DHT22;10647;51.016;3.720;2023-02-15T06:08:22;4.10;99.90
20977;DHT22;10647;51.016;3.720;2023-02-15T06:10:49;4.10;99.90
20977;DHT22;10647;51.016;3.720;2023-02-15T06:13:17;4.10;99.90
20977;DHT22;10647;51.016;3.720;2023-02-15T06:15:44;4.10;99.90
20977;DHT22;10647;51.016;3.720;2023-02-15T06:18:12;4.10;99.90
20977;DHT22;10647;51.016;3.720;2023-02-15T06:20:39;4.20;99.90
20977;DHT22;10647;51.016;3.720;2023-02-15T06:23:07;4.10;99.90
20977;DHT22;10647;51.016;3.720;2023-02-15T06:25:37;4.10;99.90
20977;DHT22;10647;51.016;3.720;2023-02-15T06:28:05;4.20;99.90
20977;DHT22;10647;51.016;3.720;2023-02-15T06:30:32;4.10;99.90
20977;DHT22;10647;51.016;3.720;2023-02-15T06:33:09;4.20;99.90
20977;DHT22;10647;51.016;3.720;2023-02-15T06:35:37;4.20;99.90
20977;DHT22;10647;51.016;3.720;2023-02-15T06:38:08;4.20;99.90
20977;DHT22;10647;51.016;3.720;2023-02-15T06:40:41;4.20;99.90
20977;DHT22;10647;51.016;3.720;2023-02-15T06:43:09;4.20;99.90
20977;DHT22;10647;51.016;3.720;2023-02-15T06:45:37;4.20;99.90
20977;DHT22;10647;51.016;3.720;2023-02-15T06:48:05;4.20;99.90
20977;DHT22;10647;51.016;3.720;2023-02-15T06:50:34;4.20;99.90
20977;DHT22;10647;51.016;3.720;2023-02-15T06:53:02;4.20;99.90
20977;DHT22;10647;51.016;3.720;2023-02-15T06:55:35;4.30;99.90
20977;DHT22;10647;51.016;3.720;2023-02-15T06:58:03;4.30;99.90
20977;DHT22;10647;51.016;3.720;2023-02-15T07:00:31;4.40;99.90
20977;DHT22;10647;51.016;3.720;2023-02-15T07:02:59;4.40;99.90
20977;DHT22;10647;51.016;3.720;2023-02-15T07:05:28;4.50;99.90
20977;DHT22;10647;51.016;3.720;2023-02-15T07:07:58;4.50;99.90
20977;DHT22;10647;51.016;3.720;2023-02-15T07:10:26;4.50;99.90
20977;DHT22;10647;51.016;3.720;2023-02-15T07:12:56;4.60;99.90
20977;DHT22;10647;51.016;3.720;2023-02-15T07:15:23;4.60;99.90
20977;DHT22;10647;51.016;3.720;2023-02-15T07:17:51;4.70;99.90
20977;DHT22;10647;51.016;3.720;2023-02-15T07:20:20;4.80;99.90
20977;DHT22;10647;51.016;3.720;2023-02-15T07:22:50;4.80;99.90
20977;DHT22;10647;51.016;3.720;2023-02-15T07:25:18;4.90;99.90
20977;DHT22;10647;51.016;3.720;2023-02-15T07:27:47;4.90;99.90
20977;DHT22;10647;51.016;3.720;2023-02-15T07:30:17;5.00;99.90
20977;DHT22;10647;51.016;3.720;2023-02-15T07:32:44;5.00;99.90
20977;DHT22;10647;51.016;3.720;2023-02-15T07:35:30;5.10;99.90
20977;DHT22;10647;51.016;3.720;2023-02-15T07:37:57;5.10;99.90
20977;DHT22;10647;51.016;3.720;2023-02-15T07:40:25;5.20;99.90
20977;DHT22;10647;51.016;3.720;2023-02-15T07:42:52;5.10;99.90
20977;DHT22;10647;51.016;3.720;2023-02-15T07:45:23;5.20;99.90
20977;DHT22;10647;51.016;3.720;2023-02-15T07:47:50;5.30;99.90
20977;DHT22;10647;51.016;3.720;2023-02-15T07:50:19;5.40;99.90
20977;DHT22;10647;51.016;3.720;2023-02-15T07:52:46;5.40;99.90
20977;DHT22;10647;51.016;3.720;2023-02-15T07:55:14;5.50;99.90
20977;DHT22;10647;51.016;3.720;2023-02-15T07:58:01;5.50;99.90
20977;DHT22;10647;51.016;3.720;2023-02-15T08:00:29;5.60;99.90
20977;DHT22;10647;51.016;3.720;2023-02-15T08:03:17;5.60;99.90
20977;DHT22;10647;51.016;3.720;2023-02-15T08:05:45;5.70;99.90
20977;DHT22;10647;51.016;3.720;2023-02-15T08:08:19;5.80;99.90
20977;DHT22;10647;51.016;3.720;2023-02-15T08:11:26;5.90;99.90
20977;DHT22;10647;51.016;3.720;2023-02-15T08:14:17;6.00;99.90
20977;DHT22;10647;51.016;3.720;2023-02-15T08:17:02;6.10;99.90
20977;DHT22;10647;51.016;3.720;2023-02-15T08:19:37;6.20;99.90
20977;DHT22;10647;51.016;3.720;2023-02-15T08:22:13;6.40;99.90
20977;DHT22;10647;51.016;3.720;2023-02-15T08:24:41;6.50;99.90
20977;DHT22;10647;51.016;3.720;2023-02-15T08:27:10;6.70;99.90
20977;DHT22;10647;51.016;3.720;2023-02-15T08:29:38;6.80;99.90
20977;DHT22;10647;51.016;3.720;2023-02-15T08:32:09;6.90;99.90
20977;DHT22;10647;51.016;3.720;2023-02-15T08:34:44;7.00;99.90
20977;DHT22;10647;51.016;3.720;2023-02-15T08:37:12;7.10;99.90
20977;DHT22;10647;51.016;3.720;2023-02-15T08:39:40;7.30;99.90
20977;DHT22;10647;51.016;3.720;2023-02-15T08:42:10;7.40;99.90
20977;DHT22;10647;51.016;3.720;2023-02-15T08:44:38;7.50;99.90
20977;DHT22;10647;51.016;3.720;2023-02-15T08:47:05;7.60;99.90
20977;DHT22;10647;51.016;3.720;2023-02-15T08:49:33;7.80;99.90
20977;DHT22;10647;51.016;3.720;2023-02-15T08:52:06;7.90;99.90
20977;DHT22;10647;51.016;3.720;2023-02-15T08:54:34;8.10;99.90
20977;DHT22;10647;51.016;3.720;2023-02-15T08:57:02;8.20;99.90
20977;DHT22;10647;51.016;3.720;2023-02-15T08:59:30;8.40;99.90
20977;DHT22;10647;51.016;3.720;2023-02-15T09:02:01;8.50;99.90
20977;DHT22;10647;51.016;3.720;2023-02-15T09:04:32;8.70;99.90
20977;DHT22;10647;51.016;3.720;2023-02-15T09:06:59;8.80;99.90
20977;DHT22;10647;51.016;3.720;2023-02-15T09:09:27;8.90;99.90
20977;DHT22;10647;51.016;3.720;2023-02-15T09:11:54;9.00;99.90
20977;DHT22;10647;51.016;3.720;2023-02-15T09:14:22;9.00;99.90
20977;DHT22;10647;51.016;3.720;2023-02-15T09:16:52;9.10;99.90
20977;DHT22;10647;51.016;3.720;2023-02-15T09:22:08;9.20;99.90
20977;DHT22;10647;51.016;3.720;2023-02-15T09:24:36;9.30;99.90
20977;DHT22;10647;51.016;3.720;2023-02-15T09:27:04;9.40;99.90
20977;DHT22;10647;51.016;3.720;2023-02-15T09:29:32;9.50;99.90
20977;DHT22;10647;51.016;3.720;2023-02-15T09:31:59;9.50;99.90
20977;DHT22;10647;51.016;3.720;2023-02-15T09:34:27;9.70;99.90
20977;DHT22;10647;51.016;3.720;2023-02-15T09:37:00;9.80;99.90
20977;DHT22;10647;51.016;3.720;2023-02-15T09:39:29;9.80;99.90
20977;DHT22;10647;51.016;3.720;2023-02-15T09:48:05;9.90;99.90
20977;DHT22;10647;51.016;3.720;2023-02-15T09:53:59;10.00;99.90
20977;DHT22;10647;51.016;3.720;2023-02-15T09:58:59;10.10;99.90
20977;DHT22;10647;51.016;3.720;2023-02-15T10:01:33;10.10;99.90
20977;DHT22;10647;51.016;3.720;2023-02-15T10:04:24;10.20;99.90
20977;DHT22;10647;51.016;3.720;2023-02-15T10:06:55;10.20;99.90
20977;DHT22;10647;51.016;3.720;2023-02-15T10:15:41;10.70;99.90
20977;DHT22;10647;51.016;3.720;2023-02-15T10:18:16;10.80;99.90
20977;DHT22;10647;51.016;3.720;2023-02-15T10:26:40;11.00;99.90
20977;DHT22;10647;51.016;3.720;2023-02-15T10:29:14;11.10;99.90
20977;DHT22;10647;51.016;3.720;2023-02-15T10:31:51;11.20;99.90
20977;DHT22;10647;51.016;3.720;2023-02-15T10:34:38;11.20;99.90
20977;DHT22;10647;51.016;3.720;2023-02-15T10:39:56;11.30;99.90
20977;DHT22;10647;51.016;3.720;2023-02-15T10:45:37;11.50;99.90
20977;DHT22;10647;51.016;3.720;2023-02-15T10:57:02;11.50;99.90
20977;DHT22;10647;51.016;3.720;2023-02-15T10:59:45;11.60;99.90
20977;DHT22;10647;51.016;3.720;2023-02-15T11:02:19;11.60;99.90
20977;DHT22;10647;51.016;3.720;2023-02-15T11:04:57;11.60;99.90
20977;DHT22;10647;51.016;3.720;2023-02-15T11:07:35;11.70;99.90
20977;DHT22;10647;51.016;3.720;2023-02-15T11:10:27;11.70;99.90
20977;DHT22;10647;51.016;3.720;2023-02-15T11:12:56;11.80;99.90
20977;DHT22;10647;51.016;3.720;2023-02-15T11:18:12;12.00;99.90
20977;DHT22;10647;51.016;3.720;2023-02-15T11:20:53;12.00;99.90
20977;DHT22;10647;51.016;3.720;2023-02-15T11:23:21;12.10;99.90
20977;DHT22;10647;51.016;3.720;2023-02-15T11:31:49;12.80;99.90
20977;DHT22;10647;51.016;3.720;2023-02-15T11:37:54;13.10;99.90
20977;DHT22;10647;51.016;3.720;2023-02-15T11:42:49;13.30;99.90
20977;DHT22;10647;51.016;3.720;2023-02-15T11:45:27;13.30;99.90
20977;DHT22;10647;51.016;3.720;2023-02-15T11:47:58;13.40;99.90
20977;DHT22;10647;51.016;3.720;2023-02-15T11:50:29;13.50;99.90
20977;DHT22;10647;51.016;3.720;2023-02-15T11:53:00;13.60;99.90
20977;DHT22;10647;51.016;3.720;2023-02-15T11:55:28;13.70;99.90
20977;DHT22;10647;51.016;3.720;2023-02-15T12:04:09;14.60;99.90
20977;DHT22;10647;51.016;3.720;2023-02-15T12:06:51;14.80;99.90
20977;DHT22;10647;51.016;3.720;2023-02-15T12:12:45;15.30;99.90
20977;DHT22;10647;51.016;3.720;2023-02-15T12:15:19;15.40;99.90
20977;DHT22;10647;51.016;3.720;2023-02-15T12:21:34;15.50;99.90
20977;DHT22;10647;51.016;3.720;2023-02-15T12:24:19;15.60;99.90
20977;DHT22;10647;51.016;3.720;2023-02-15T12:27:26;15.80;99.90
20977;DHT22;10647;51.016;3.720;2023-02-15T12:29:58;15.90;99.90
20977;DHT22;10647;51.016;3.720;2023-02-15T12:32:31;15.90;99.90
20977;DHT22;10647;51.016;3.720;2023-02-15T12:35:12;16.00;99.90
20977;DHT22;10647;51.016;3.720;2023-02-15T12:37:31;16.00;99.90
20977;DHT22;10647;51.016;3.720;2023-02-15T12:40:24;16.10;99.90
20977;DHT22;10647;51.016;3.720;2023-02-15T12:42:54;16.10;99.90
20977;DHT22;10647;51.016;3.720;2023-02-15T12:45:33;16.10;99.90
20977;DHT22;10647;51.016;3.720;2023-02-15T12:48:18;16.10;99.90
20977;DHT22;10647;51.016;3.720;2023-02-15T12:50:49;16.20;99.90
20977;DHT22;10647;51.016;3.720;2023-02-15T12:53:22;16.20;99.90
20977;DHT22;10647;51.016;3.720;2023-02-15T12:55:55;16.30;99.90
20977;DHT22;10647;51.016;3.720;2023-02-15T12:58:29;16.30;99.90
20977;DHT22;10647;51.016;3.720;2023-02-15T13:03:33;16.30;99.90
20977;DHT22;10647;51.016;3.720;2023-02-15T13:06:02;16.20;99.90
20977;DHT22;10647;51.016;3.720;2023-02-15T13:08:34;16.10;99.90
20977;DHT22;10647;51.016;3.720;2023-02-15T13:11:07;16.10;99.90
20977;DHT22;10647;51.016;3.720;2023-02-15T13:16:31;18.00;99.90
20977;DHT22;10647;51.016;3.720;2023-02-15T13:19:05;18.70;99.90
20977;DHT22;10647;51.016;3.720;2023-02-15T13:21:36;19.10;99.90
20977;DHT22;10647;51.016;3.720;2023-02-15T13:24:14;19.80;99.90
20977;DHT22;10647;51.016;3.720;2023-02-15T13:26:57;20.20;99.90
20977;DHT22;10647;51.016;3.720;2023-02-15T13:29:36;20.40;99.90
20977;DHT22;10647;51.016;3.720;2023-02-15T13:32:30;20.50;99.90
20977;DHT22;10647;51.016;3.720;2023-02-15T13:35:00;21.00;98.70
20977;DHT22;10647;51.016;3.720;2023-02-15T13:37:52;21.60;97.30
20977;DHT22;10647;51.016;3.720;2023-02-15T13:43:29;22.10;95.80
20977;DHT22;10647;51.016;3.720;2023-02-15T13:46:23;22.30;94.20
20977;DHT22;10647;51.016;3.720;2023-02-15T14:08:16;22.60;90.20
20977;DHT22;10647;51.016;3.720;2023-02-15T14:10:51;22.50;90.00
20977;DHT22;10647;51.016;3.720;2023-02-15T14:13:34;22.70;90.00
20977;DHT22;10647;51.016;3.720;2023-02-15T14:16:03;23.10;89.30
20977;DHT22;10647;51.016;3.720;2023-02-15T14:18:55;23.40;87.70
20977;DHT22;10647;51.016;3.720;2023-02-15T14:21:34;23.80;86.70
20977;DHT22;10647;51.016;3.720;2023-02-15T14:30:00;23.30;83.90
20977;DHT22;10647;51.016;3.720;2023-02-15T14:32:45;23.00;83.80
20977;DHT22;10647;51.016;3.720;2023-02-15T14:35:17;22.90;84.30
20977;DHT22;10647;51.016;3.720;2023-02-15T14:38:06;22.70;84.50
20977;DHT22;10647;51.016;3.720;2023-02-15T14:52:03;21.90;85.50
20977;DHT22;10647;51.016;3.720;2023-02-15T15:05:25;20.10;87.40
20977;DHT22;10647;51.016;3.720;2023-02-15T15:07:57;19.60;88.40
20977;DHT22;10647;51.016;3.720;2023-02-15T15:10:38;19.10;89.30
20977;DHT22;10647;51.016;3.720;2023-02-15T15:15:52;18.40;90.60
20977;DHT22;10647;51.016;3.720;2023-02-15T15:18:48;18.00;91.10
20977;DHT22;10647;51.016;3.720;2023-02-15T15:21:53;17.80;91.70
20977;DHT22;10647;51.016;3.720;2023-02-15T15:27:37;17.30;92.40
20977;DHT22;10647;51.016;3.720;2023-02-15T15:47:13;16.30;94.60
20977;DHT22;10647;51.016;3.720;2023-02-15T15:52:57;16.10;95.00
20977;DHT22;10647;51.016;3.720;2023-02-15T15:55:27;16.00;95.30
20977;DHT22;10647;51.016;3.720;2023-02-15T16:00:54;15.90;95.70
20977;DHT22;10647;51.016;3.720;2023-02-15T16:03:25;15.70;95.90
20977;DHT22;10647;51.016;3.720;2023-02-15T16:09:10;15.50;96.30
20977;DHT22;10647;51.016;3.720;2023-02-15T16:11:38;15.40;96.60
20977;DHT22;10647;51.016;3.720;2023-02-15T16:14:22;15.30;96.80
20977;DHT22;10647;51.016;3.720;2023-02-15T16:19:48;15.10;97.30
20977;DHT22;10647;51.016;3.720;2023-02-15T16:22:19;15.00;97.60
20977;DHT22;10647;51.016;3.720;2023-02-15T16:25:19;14.90;97.80
20977;DHT22;10647;51.016;3.720;2023-02-15T16:27:50;14.90;98.10
20977;DHT22;10647;51.016;3.720;2023-02-15T16:32:51;14.60;98.60
20977;DHT22;10647;51.016;3.720;2023-02-15T16:35:19;14.60;98.80
20977;DHT22;10647;51.016;3.720;2023-02-15T16:37:47;14.60;99.00
20977;DHT22;10647;51.016;3.720;2023-02-15T16:40:38;14.50;99.20
20977;DHT22;10647;51.016;3.720;2023-02-15T16:43:03;14.40;99.40
20977;DHT22;10647;51.016;3.720;2023-02-15T16:45:33;14.30;99.50
20977;DHT22;10647;51.016;3.720;2023-02-15T16:48:06;14.20;99.70
20977;DHT22;10647;51.016;3.720;2023-02-15T16:50:54;14.10;99.80
20977;DHT22;10647;51.016;3.720;2023-02-15T16:53:26;14.00;99.90
20977;DHT22;10647;51.016;3.720;2023-02-15T16:55:59;14.00;99.90
20977;DHT22;10647;51.016;3.720;2023-02-15T16:58:31;13.90;99.90
20977;DHT22;10647;51.016;3.720;2023-02-15T17:00:59;13.80;99.90
20977;DHT22;10647;51.016;3.720;2023-02-15T17:03:28;13.70;99.90
20977;DHT22;10647;51.016;3.720;2023-02-15T17:06:01;13.60;99.90
20977;DHT22;10647;51.016;3.720;2023-02-15T17:08:32;13.50;99.90
20977;DHT22;10647;51.016;3.720;2023-02-15T17:16:58;13.00;99.90
20977;DHT22;10647;51.016;3.720;2023-02-15T17:19:31;12.90;99.90
20977;DHT22;10647;51.016;3.720;2023-02-15T17:21:58;12.80;99.90
20977;DHT22;10647;51.016;3.720;2023-02-15T17:24:38;12.70;99.90
20977;DHT22;10647;51.016;3.720;2023-02-15T17:27:27;12.60;99.90
20977;DHT22;10647;51.016;3.720;2023-02-15T17:29:50;12.50;99.90
20977;DHT22;10647;51.016;3.720;2023-02-15T17:32:36;12.50;99.90
20977;DHT22;10647;51.016;3.720;2023-02-15T17:35:18;12.40;99.90
20977;DHT22;10647;51.016;3.720;2023-02-15T17:37:48;12.40;99.90
20977;DHT22;10647;51.016;3.720;2023-02-15T17:40:24;12.30;99.90
20977;DHT22;10647;51.016;3.720;2023-02-15T17:42:53;12.30;99.90
20977;DHT22;10647;51.016;3.720;2023-02-15T17:45:22;12.20;99.90
20977;DHT22;10647;51.016;3.720;2023-02-15T17:47:50;12.20;99.90
20977;DHT22;10647;51.016;3.720;2023-02-15T17:50:21;12.10;99.90
20977;DHT22;10647;51.016;3.720;2023-02-15T17:52:49;12.10;99.90
20977;DHT22;10647;51.016;3.720;2023-02-15T17:55:20;12.10;99.90
20977;DHT22;10647;51.016;3.720;2023-02-15T18:01:07;12.00;99.90
20977;DHT22;10647;51.016;3.720;2023-02-15T18:03:53;11.90;99.90
20977;DHT22;10647;51.016;3.720;2023-02-15T18:06:41;11.90;99.90
20977;DHT22;10647;51.016;3.720;2023-02-15T18:09:29;11.80;99.90
20977;DHT22;10647;51.016;3.720;2023-02-15T18:12:30;11.70;99.90
20977;DHT22;10647;51.016;3.720;2023-02-15T18:14:59;11.60;99.90
20977;DHT22;10647;51.016;3.720;2023-02-15T18:17:37;11.60;99.90
20977;DHT22;10647;51.016;3.720;2023-02-15T18:20:25;11.60;99.90
20977;DHT22;10647;51.016;3.720;2023-02-15T18:22:54;11.60;99.90
20977;DHT22;10647;51.016;3.720;2023-02-15T18:25:22;11.60;99.90
20977;DHT22;10647;51.016;3.720;2023-02-15T18:27:51;11.50;99.90
20977;DHT22;10647;51.016;3.720;2023-02-15T18:30:21;11.50;99.90
20977;DHT22;10647;51.016;3.720;2023-02-15T18:32:51;11.50;99.90
20977;DHT22;10647;51.016;3.720;2023-02-15T18:35:21;11.40;99.90
20977;DHT22;10647;51.016;3.720;2023-02-15T18:37:51;11.40;99.90
20977;DHT22;10647;51.016;3.720;2023-02-15T18:40:21;11.30;99.90
20977;DHT22;10647;51.016;3.720;2023-02-15T18:42:50;11.30;99.90
20977;DHT22;10647;51.016;3.720;2023-02-15T18:45:23;11.20;99.90
20977;DHT22;10647;51.016;3.720;2023-02-15T18:47:52;11.20;99.90
20977;DHT22;10647;51.016;3.720;2023-02-15T18:50:21;11.10;99.90
20977;DHT22;10647;51.016;3.720;2023-02-15T18:52:50;11.10;99.90
20977;DHT22;10647;51.016;3.720;2023-02-15T18:55:24;11.00;99.90
20977;DHT22;10647;51.016;3.720;2023-02-15T18:57:55;11.00;99.90
20977;DHT22;10647;51.016;3.720;2023-02-15T19:00:26;11.00;99.90
20977;DHT22;10647;51.016;3.720;2023-02-15T19:02:58;10.90;99.90
20977;DHT22;10647;51.016;3.720;2023-02-15T19:05:28;10.80;99.90
20977;DHT22;10647;51.016;3.720;2023-02-15T19:07:57;10.80;99.90
20977;DHT22;10647;51.016;3.720;2023-02-15T19:10:27;10.70;99.90
20977;DHT22;10647;51.016;3.720;2023-02-15T19:12:56;10.70;99.90
20977;DHT22;10647;51.016;3.720;2023-02-15T19:15:26;10.70;99.90
20977;DHT22;10647;51.016;3.720;2023-02-15T19:17:55;10.60;99.90
20977;DHT22;10647;51.016;3.720;2023-02-15T19:20:35;10.60;99.90
20977;DHT22;10647;51.016;3.720;2023-02-15T19:23:23;10.50;99.90
20977;DHT22;10647;51.016;3.720;2023-02-15T19:25:53;10.50;99.90
20977;DHT22;10647;51.016;3.720;2023-02-15T19:28:29;10.40;99.90
20977;DHT22;10647;51.016;3.720;2023-02-15T19:30:56;10.40;99.90
20977;DHT22;10647;51.016;3.720;2023-02-15T19:33:23;10.40;99.90
20977;DHT22;10647;51.016;3.720;2023-02-15T19:35:54;10.40;99.90
20977;DHT22;10647;51.016;3.720;2023-02-15T19:38:25;10.40;99.90
20977;DHT22;10647;51.016;3.720;2023-02-15T19:41:05;10.30;99.90
20977;DHT22;10647;51.016;3.720;2023-02-15T19:43:30;10.30;99.90
20977;DHT22;10647;51.016;3.720;2023-02-15T19:45:59;10.30;99.90
20977;DHT22;10647;51.016;3.720;2023-02-15T19:48:28;10.20;99.90
20977;DHT22;10647;51.016;3.720;2023-02-15T19:50:56;10.20;99.90
20977;DHT22;10647;51.016;3.720;2023-02-15T19:53:26;10.20;99.90
20977;DHT22;10647;51.016;3.720;2023-02-15T19:55:55;10.20;99.90
20977;DHT22;10647;51.016;3.720;2023-02-15T19:58:23;10.10;99.90